首页
METAR-TAF:

METAR-TAF

机场 :

赫尔辛基-万塔机场

赫尔辛基, 芬兰

纬度: 60-19N, 经度: 024-58E, 海拔: 51米

当前天气观测

该预报发布于18分钟前的11:20 UTC
风速6节,风向西,在西南西转西北之间变化
温度 11°C
湿度 47%
气压 1013 hPa
能见度10公里或以上
散云层高于4300英尺, 塔状积云.
附近有阵雨

METAR: EFHK 191120Z 26006KT 230V300 9999 VCSH SCT043TCU 11/M00 Q1013 BECMG SCT025CB

时间: 14:38 (11:38 UTC)

预报

该预报发布于3小时和2分钟前的08:36 UTC
预报有效从19日的 09点(UTC)到 20日的 09点(UTC)
风速4节,风向西
能见度10公里或以上
1500米以下无云,无积雨云
短暂存在
从 19日的 11点(UTC)到 19日的 16点(UTC)
散云层高于2500英尺, 积雨云.
几率 30% :
短暂存在
从 19日的 11点(UTC)到 19日的 16点(UTC)
阵雨
几率 30% :
短暂存在
从 19日的 16点(UTC)到 19日的 18点(UTC)
少量云层高于3500英尺, 积雨云.

TAF: EFHK 190836Z 1909/2009 28004KT CAVOK TEMPO 1911/1916 SCT025CB PROB30 TEMPO 1911/1916 SHRA PROB30 TEMPO 1916/1918 FEW035CB

超过4000个机场的气象观测和天气预报(METAR&TAF报告)。

可查询的气象台以黄色和红色小点在地图上表示。

将鼠标移到小点上方,可查看气象台名称。

然后点击查看天气观测和预报。

如需切换地图:点击带黑十字的绿色按钮放大地图;点击带横线的绿色按钮缩小地图;或者点击绿色箭头查看邻近地区的地图。


METAR-TAF: